Time;durP1;ratioP1;P1;durP2;ratioP2;P2;SDS_P1;SDS_P2;PMS_P1;PMS_P2;Temp;Humidity;BMP_temperature;BMP_pressure;BME280_temperature;BME280_humidity;BME280_pressure;Samples;Min_cycle;Max_cycle;Signal;HPM_P1;HPM_P2
2022/04/19 00:00:33;;;;;;;8.88;5.43;;;9.40;78.90;;;;;;5051548;28;20057;-70
2022/04/19 00:03:02;;;;;;;9.38;5.60;;;9.30;79.70;;;;;;5050672;28;20045;-70
2022/04/19 00:05:29;;;;;;;9.23;5.95;;;9.30;79.70;;;;;;5051001;28;20102;-70
2022/04/19 00:07:56;;;;;;;8.60;5.13;;;9.30;79.80;;;;;;5052471;28;20558;-70
2022/04/19 00:10:22;;;;;;;8.13;5.70;;;9.20;79.90;;;;;;5050328;28;20045;-70
2022/04/19 00:12:49;;;;;;;11.60;5.82;;;9.20;80.10;;;;;;5051446;28;20045;-70
2022/04/19 00:15:17;;;;;;;10.45;5.13;;;9.20;80.40;;;;;;5051187;28;20064;-70
2022/04/19 00:17:45;;;;;;;7.70;5.50;;;9.00;80.40;;;;;;5050814;28;20093;-70
2022/04/19 00:20:12;;;;;;;8.88;5.70;;;9.10;80.80;;;;;;5052682;28;20485;-70
2022/04/19 00:22:39;;;;;;;9.50;6.18;;;9.00;80.80;;;;;;5051378;28;20055;-69
2022/04/19 00:25:07;;;;;;;9.27;5.78;;;9.00;81.00;;;;;;5051403;28;20049;-69
2022/04/19 00:27:34;;;;;;;8.05;5.43;;;9.00;81.40;;;;;;5052223;28;20096;-69
2022/04/19 00:30:02;;;;;;;6.70;4.90;;;9.00;81.50;;;;;;5051671;28;20049;-69
2022/04/19 00:32:28;;;;;;;8.27;5.53;;;9.00;81.70;;;;;;5052348;28;20128;-69
2022/04/19 00:34:58;;;;;;;8.63;5.63;;;9.00;81.90;;;;;;5050876;28;20084;-69
2022/04/19 00:37:25;;;;;;;8.30;5.47;;;8.90;81.90;;;;;;5050408;28;20065;-69
2022/04/19 00:39:52;;;;;;;9.65;5.13;;;8.90;82.10;;;;;;5051148;28;20137;-68
2022/04/19 00:42:20;;;;;;;9.77;5.60;;;8.90;82.30;;;;;;5051047;28;20100;-68
2022/04/19 00:44:47;;;;;;;9.25;5.95;;;8.80;82.50;;;;;;5051524;28;20128;-68
2022/04/19 00:47:15;;;;;;;10.70;6.85;;;8.80;82.80;;;;;;5051153;28;20091;-68
2022/04/19 00:49:43;;;;;;;8.70;5.70;;;8.80;83.20;;;;;;5051099;28;20392;-68
2022/04/19 00:52:11;;;;;;;9.48;5.70;;;8.70;83.50;;;;;;5051574;28;20132;-69
2022/04/19 00:54:38;;;;;;;10.65;5.53;;;8.70;83.80;;;;;;5050253;28;20500;-69
2022/04/19 00:57:05;;;;;;;9.57;5.43;;;8.60;84.10;;;;;;5051463;28;20416;-69
2022/04/19 00:59:33;;;;;;;9.98;6.13;;;8.60;84.50;;;;;;5054252;28;20129;-70
2022/04/19 01:02:01;;;;;;;9.40;5.10;;;8.60;84.80;;;;;;5055440;28;20493;-69
2022/04/19 01:04:28;;;;;;;8.68;5.65;;;8.50;85.60;;;;;;5055464;28;20053;-69
2022/04/19 01:06:54;;;;;;;8.25;5.53;;;8.50;85.30;;;;;;5053644;28;20106;-70
2022/04/19 01:09:24;;;;;;;9.82;5.40;;;8.50;85.60;;;;;;5055439;28;20100;-69
2022/04/19 01:14:37;;;;;;;11.23;5.80;;;8.40;86.40;;;;;;5054081;28;20053;-69
2022/04/19 01:17:04;;;;;;;9.93;5.80;;;8.40;86.80;;;;;;5054352;28;20140;-69
2022/04/19 01:19:31;;;;;;;11.13;6.10;;;8.30;87.10;;;;;;5053661;28;20526;-69
2022/04/19 01:22:00;;;;;;;10.70;5.80;;;8.20;88.00;;;;;;5054840;28;20075;-70
2022/04/19 01:24:27;;;;;;;13.95;6.07;;;8.20;87.90;;;;;;5054029;28;20055;-69
2022/04/19 01:26:56;;;;;;;10.18;6.63;;;8.20;88.20;;;;;;5054295;28;20085;-69
2022/04/19 01:29:23;;;;;;;10.88;6.10;;;8.20;89.00;;;;;;5054865;28;20566;-69
2022/04/19 01:31:52;;;;;;;9.82;5.95;;;8.10;89.20;;;;;;5055211;28;20533;-70
2022/04/19 01:34:20;;;;;;;12.57;6.93;;;8.10;89.60;;;;;;5054252;28;20045;-70
2022/04/19 01:36:47;;;;;;;12.43;7.13;;;8.10;89.50;;;;;;5053662;28;20079;-70
2022/04/19 01:39:15;;;;;;;11.10;7.10;;;8.10;90.20;;;;;;5054907;28;20085;-70
2022/04/19 01:41:42;;;;;;;12.30;6.30;;;8.10;90.30;;;;;;5053079;28;20080;-69
2022/04/19 01:44:09;;;;;;;13.68;6.50;;;8.20;90.40;;;;;;5054960;28;20450;-69
2022/04/19 01:46:36;;;;;;;12.63;7.03;;;8.20;90.40;;;;;;5054884;28;20544;-70
2022/04/19 01:49:04;;;;;;;9.10;6.00;;;8.20;90.50;;;;;;5052523;28;20052;-69
2022/04/19 01:51:31;;;;;;;12.02;5.95;;;8.20;90.60;;;;;;5054217;28;20076;-70
2022/04/19 01:53:58;;;;;;;12.05;6.32;;;8.20;90.70;;;;;;5052979;28;20080;-70
2022/04/19 01:56:26;;;;;;;9.88;6.05;;;8.20;90.90;;;;;;5053000;28;20135;-69
2022/04/19 01:58:53;;;;;;;10.13;6.30;;;8.20;91.10;;;;;;5053372;28;20135;-70
2022/04/19 02:01:19;;;;;;;11.88;6.25;;;8.20;91.30;;;;;;5052635;28;20076;-70
2022/04/19 02:03:46;;;;;;;11.00;6.53;;;8.20;91.30;;;;;;5053344;28;20092;-69
2022/04/19 02:06:14;;;;;;;10.30;6.75;;;8.10;91.50;;;;;;5053981;28;20136;-69
2022/04/19 02:08:41;;;;;;;10.57;6.78;;;8.10;91.60;;;;;;5053358;28;20064;-70
2022/04/19 02:11:08;;;;;;;13.10;7.93;;;8.10;91.70;;;;;;5053505;28;20092;-70
2022/04/19 02:13:36;;;;;;;11.35;6.32;;;8.10;91.80;;;;;;5053910;28;20041;-70
2022/04/19 02:16:03;;;;;;;9.25;5.85;;;8.00;91.80;;;;;;5053477;28;20541;-70
2022/04/19 02:18:30;;;;;;;10.35;6.28;;;8.00;92.00;;;;;;5052722;28;20140;-70
2022/04/19 02:20:58;;;;;;;12.32;7.15;;;8.00;92.20;;;;;;5053951;28;20124;-70
2022/04/19 02:23:25;;;;;;;9.50;6.13;;;7.90;92.40;;;;;;5053544;28;20175;-69
2022/04/19 02:25:55;;;;;;;11.32;7.07;;;7.90;92.60;;;;;;5054024;28;20114;-70
2022/04/19 02:28:22;;;;;;;10.30;6.78;;;7.90;92.80;;;;;;5053762;28;20497;-70
2022/04/19 02:30:51;;;;;;;10.23;6.53;;;7.90;93.00;;;;;;5051609;28;20053;-70
2022/04/19 02:33:18;;;;;;;10.20;6.50;;;7.90;93.20;;;;;;5053530;28;20099;-70
2022/04/19 02:35:45;;;;;;;9.65;6.30;;;7.90;93.40;;;;;;5053806;28;20132;-70
2022/04/19 02:38:12;;;;;;;11.07;7.10;;;7.90;94.00;;;;;;5051882;28;20080;-70
2022/04/19 02:40:39;;;;;;;9.05;6.25;;;7.80;94.10;;;;;;5053773;28;20048;-70
2022/04/19 02:43:06;;;;;;;10.10;6.18;;;7.90;95.30;;;;;;5053828;28;20091;-69
2022/04/19 02:45:32;;;;;;;11.63;6.95;;;7.90;95.40;;;;;;5052717;28;20127;-70
2022/04/19 02:48:05;;;;;;;11.05;6.60;;;7.90;95.50;;;;;;5052505;28;20084;-69
2022/04/19 02:50:34;;;;;;;13.85;6.70;;;7.90;96.00;;;;;;5053386;28;20552;-70
2022/04/19 02:53:02;;;;;;;9.70;6.40;;;7.90;96.20;;;;;;5053555;28;20053;-70
2022/04/19 02:55:29;;;;;;;9.00;6.07;;;7.80;96.30;;;;;;5053275;28;20052;-70
2022/04/19 02:57:56;;;;;;;10.40;6.80;;;7.80;97.30;;;;;;5052996;28;20052;-69
2022/04/19 03:00:24;;;;;;;12.00;6.93;;;7.90;97.20;;;;;;5053047;28;20088;-69
2022/04/19 03:02:50;;;;;;;12.70;6.68;;;7.80;97.20;;;;;;5051744;28;20045;-69
2022/04/19 03:05:19;;;;;;;9.35;6.40;;;7.90;97.90;;;;;;5052695;28;20094;-70
2022/04/19 03:07:46;;;;;;;11.20;6.80;;;7.90;97.80;;;;;;5052033;28;20136;-70
2022/04/19 03:10:15;;;;;;;10.10;6.90;;;7.80;97.70;;;;;;5051879;28;20504;-70
2022/04/19 03:12:42;;;;;;;9.35;6.35;;;7.80;98.30;;;;;;5052194;28;20382;-70
2022/04/19 03:15:10;;;;;;;9.32;6.22;;;7.80;98.60;;;;;;5051631;28;20080;-70
2022/04/19 03:17:37;;;;;;;10.13;6.35;;;7.80;99.30;;;;;;5051548;28;20110;-70
2022/04/19 03:20:07;;;;;;;9.70;6.97;;;7.70;99.50;;;;;;5050768;28;20135;-70
2022/04/19 03:28:02;;;;;;;9.30;6.55;;;7.60;99.90;;;;;;5062123;28;20140;-69
2022/04/19 03:30:29;;;;;;;11.30;6.55;;;7.60;99.90;;;;;;5065400;28;20485;-70
2022/04/19 03:32:56;;;;;;;11.00;6.80;;;7.50;99.90;;;;;;5032172;28;20537;-70
2022/04/19 03:35:23;;;;;;;10.23;5.95;;;7.50;99.90;;;;;;5065017;28;20080;-69
2022/04/19 03:37:51;;;;;;;10.43;6.10;;;7.50;99.90;;;;;;5032607;28;20409;-69
2022/04/19 03:40:18;;;;;;;10.27;5.97;;;7.50;99.90;;;;;;5064520;28;20089;-70
2022/04/19 03:42:45;;;;;;;11.15;6.70;;;7.40;99.90;;;;;;5067810;28;20091;-69
2022/04/19 03:45:12;;;;;;;10.90;5.78;;;7.40;99.90;;;;;;5047283;28;20079;-71
2022/04/19 03:47:39;;;;;;;11.55;6.50;;;7.50;99.90;;;;;;5049999;28;20076;-70
2022/04/19 03:50:06;;;;;;;11.05;6.38;;;7.50;99.90;;;;;;5050470;28;20077;-71
2022/04/19 03:52:34;;;;;;;10.40;6.57;;;7.40;99.90;;;;;;5050561;28;20124;-71
2022/04/19 03:55:02;;;;;;;8.65;6.05;;;7.70;99.90;;;;;;5048983;28;20504;-70
2022/04/19 03:57:29;;;;;;;10.27;6.43;;;7.80;99.90;;;;;;5049650;28;20131;-68
2022/04/19 03:59:56;;;;;;;10.90;5.78;;;7.90;99.90;;;;;;5051607;28;20103;-70
2022/04/19 04:02:23;;;;;;;8.73;5.93;;;8.60;99.90;;;;;;5050290;28;20049;-71
2022/04/19 04:04:50;;;;;;;10.45;6.50;;;8.60;99.90;;;;;;5050085;28;20088;-71
2022/04/19 04:07:17;;;;;;;8.23;5.65;;;8.30;99.90;;;;;;5050950;28;20053;-71
2022/04/19 04:09:44;;;;;;;9.63;6.00;;;8.10;99.90;;;;;;5049885;28;20139;-70
2022/04/19 04:12:12;;;;;;;9.23;5.90;;;7.90;99.90;;;;;;5049162;28;20041;-71
2022/04/19 04:14:40;;;;;;;9.07;6.00;;;7.80;99.90;;;;;;5049387;28;20052;-71
2022/04/19 04:17:07;;;;;;;11.82;6.22;;;8.30;99.90;;;;;;5050092;28;20041;-71
2022/04/19 04:19:34;;;;;;;10.43;6.00;;;8.20;99.90;;;;;;5050242;28;20478;-71
2022/04/19 04:22:01;;;;;;;9.82;6.30;;;8.50;99.90;;;;;;5048386;28;20155;-72
2022/04/19 04:24:28;;;;;;;10.00;6.13;;;8.50;99.90;;;;;;5048809;28;20469;-71
2022/04/19 04:26:54;;;;;;;9.70;6.22;;;8.40;99.90;;;;;;5050282;28;20059;-71
2022/04/19 04:29:23;;;;;;;9.60;6.40;;;8.30;99.90;;;;;;5049579;28;20557;-71
2022/04/19 04:31:50;;;;;;;9.90;6.75;;;8.20;99.90;;;;;;5050367;28;20044;-71
2022/04/19 04:34:17;;;;;;;13.82;7.00;;;8.40;99.90;;;;;;5053667;28;20776;-71
2022/04/19 04:36:43;;;;;;;9.68;6.88;;;8.40;99.90;;;;;;5053521;28;20114;-71
2022/04/19 04:39:10;;;;;;;9.88;6.32;;;8.20;99.90;;;;;;5053290;28;20117;-71
2022/04/19 04:41:37;;;;;;;11.35;6.78;;;8.00;99.90;;;;;;5054509;28;20053;-71
2022/04/19 04:44:04;;;;;;;9.82;6.90;;;7.90;99.90;;;;;;5052451;28;20096;-70
2022/04/19 04:52:01;;;;;;;13.02;7.65;;;7.50;99.90;;;;;;5067605;28;20520;-71
2022/04/19 04:54:28;;;;;;;11.88;7.10;;;7.40;99.90;;;;;;5053847;28;20076;-71
2022/04/19 04:56:54;;;;;;;11.75;7.03;;;7.40;99.90;;;;;;5052898;28;20560;-71
2022/04/19 04:59:21;;;;;;;13.05;6.88;;;7.40;99.90;;;;;;5054138;28;20076;-71
2022/04/19 05:01:49;;;;;;;11.30;6.38;;;7.40;99.90;;;;;;5050805;28;20559;-71
2022/04/19 05:04:16;;;;;;;11.70;7.45;;;7.40;99.90;;;;;;5052015;28;20123;-71
2022/04/19 05:06:43;;;;;;;10.52;6.72;;;7.40;99.90;;;;;;5052152;28;20090;-71
2022/04/19 05:09:10;;;;;;;11.93;7.00;;;7.60;99.90;;;;;;5053380;28;20128;-71
2022/04/19 05:11:36;;;;;;;14.57;7.38;;;7.90;99.90;;;;;;5051315;28;20073;-73
2022/04/19 05:14:03;;;;;;;14.05;7.15;;;7.70;99.90;;;;;;5053254;28;20084;-71
2022/04/19 05:16:30;;;;;;;11.23;6.38;;;7.70;99.90;;;;;;5053303;28;20080;-71
2022/04/19 05:18:58;;;;;;;13.05;6.90;;;8.00;99.90;;;;;;5052887;28;20136;-71
2022/04/19 05:21:25;;;;;;;16.50;7.75;;;7.90;99.90;;;;;;5051031;28;20134;-71
2022/04/19 05:23:52;;;;;;;15.93;7.13;;;7.80;99.90;;;;;;5050630;28;20449;-70
2022/04/19 05:26:19;;;;;;;16.60;7.55;;;7.80;99.90;;;;;;5051566;28;20049;-70
2022/04/19 05:28:46;;;;;;;10.90;6.28;;;7.80;99.90;;;;;;5052047;28;20056;-70
2022/04/19 05:31:13;;;;;;;11.40;7.00;;;7.80;99.90;;;;;;5051849;28;20136;-70
2022/04/19 05:33:39;;;;;;;11.45;6.57;;;7.80;99.90;;;;;;5053237;28;20103;-71
2022/04/19 05:36:08;;;;;;;15.05;7.63;;;7.80;99.90;;;;;;5052785;28;20089;-71
2022/04/19 05:38:34;;;;;;;18.73;7.82;;;7.90;99.90;;;;;;5051828;28;20080;-72
2022/04/19 05:41:01;;;;;;;12.20;7.22;;;7.90;99.90;;;;;;5052253;28;20093;-71
2022/04/19 05:43:28;;;;;;;12.68;7.13;;;8.00;99.90;;;;;;5052314;28;20143;-70
2022/04/19 05:45:57;;;;;;;10.93;6.93;;;8.00;99.90;;;;;;5051491;28;20059;-71
2022/04/19 05:48:24;;;;;;;14.90;7.20;;;8.10;99.90;;;;;;5051056;28;20052;-71
2022/04/19 05:50:51;;;;;;;14.00;7.45;;;8.20;99.90;;;;;;5051380;28;20080;-71
2022/04/19 05:53:19;;;;;;;13.18;7.22;;;8.30;99.90;;;;;;5052488;28;20132;-72
2022/04/19 05:55:46;;;;;;;13.43;7.72;;;8.50;99.90;;;;;;5050508;28;20829;-71
2022/04/19 05:58:14;;;;;;;13.75;7.70;;;8.60;99.90;;;;;;5051388;28;20654;-71
2022/04/19 06:00:41;;;;;;;12.65;7.30;;;8.80;99.90;;;;;;5049283;28;20088;-71
2022/04/19 06:05:52;;;;;;;15.40;7.60;;;9.10;99.90;;;;;;5052595;28;20051;-73
2022/04/19 06:08:20;;;;;;;14.40;7.45;;;9.40;99.90;;;;;;5050907;28;20081;-71
2022/04/19 06:10:49;;;;;;;14.20;7.25;;;9.60;99.90;;;;;;5050722;28;20084;-72
2022/04/19 06:13:16;;;;;;;13.35;6.82;;;9.90;99.90;;;;;;5052520;28;20072;-71
2022/04/19 06:15:43;;;;;;;11.85;7.20;;;10.30;99.90;;;;;;5050027;28;20084;-71
2022/04/19 06:18:10;;;;;;;14.98;7.35;;;10.60;99.90;;;;;;5050948;28;20057;-72
2022/04/19 06:20:37;;;;;;;10.88;7.10;;;11.10;99.90;;;;;;5050617;28;20136;-72
2022/04/19 06:23:04;;;;;;;12.05;6.70;;;11.60;99.90;;;;;;5050236;28;20485;-72
2022/04/19 06:25:32;;;;;;;11.15;7.18;;;12.20;99.90;;;;;;5049167;28;20083;-71
2022/04/19 06:27:59;;;;;;;10.13;6.40;;;12.70;98.50;;;;;;5052051;28;20084;-71
2022/04/19 06:30:26;;;;;;;12.13;7.60;;;13.10;97.60;;;;;;5050550;28;20148;-71
2022/04/19 06:32:53;;;;;;;13.48;7.10;;;13.60;96.70;;;;;;5051381;28;20103;-71
2022/04/19 06:35:20;;;;;;;13.95;6.65;;;14.20;95.70;;;;;;5050327;28;20110;-71
2022/04/19 06:37:48;;;;;;;13.55;7.15;;;14.70;94.20;;;;;;5051497;28;20063;-72
2022/04/19 06:40:15;;;;;;;12.20;7.57;;;15.20;93.40;;;;;;5051728;28;20041;-71
2022/04/19 06:42:44;;;;;;;12.32;7.30;;;15.60;92.50;;;;;;5050492;28;20045;-72
2022/04/19 06:45:12;;;;;;;11.75;6.45;;;16.00;91.90;;;;;;5051138;28;20118;-71
2022/04/19 06:47:39;;;;;;;11.95;6.63;;;16.50;91.10;;;;;;5053180;28;20094;-71
2022/04/19 06:50:07;;;;;;;8.80;6.20;;;16.80;90.50;;;;;;5051370;28;20052;-71
2022/04/19 06:52:34;;;;;;;17.15;6.93;;;17.50;89.50;;;;;;5052382;28;20092;-71
2022/04/19 06:55:01;;;;;;;12.35;6.03;;;18.00;87.50;;;;;;5047665;28;20569;-71
2022/04/19 06:57:28;;;;;;;10.02;5.90;;;18.10;84.70;;;;;;5052083;28;20124;-71
2022/04/19 06:59:57;;;;;;;11.63;6.13;;;18.50;83.20;;;;;;5052261;28;20403;-71
2022/04/19 07:02:24;;;;;;;8.60;5.50;;;18.60;80.70;;;;;;5052628;28;20048;-71
2022/04/19 07:04:51;;;;;;;7.43;4.78;;;18.90;79.70;;;;;;5051083;28;20053;-71
2022/04/19 07:07:18;;;;;;;8.82;5.35;;;19.60;79.60;;;;;;5052179;28;20092;-71
2022/04/19 07:09:45;;;;;;;10.68;4.90;;;19.80;78.00;;;;;;5053256;28;20405;-71
2022/04/19 07:12:12;;;;;;;8.88;4.63;;;20.20;76.40;;;;;;5052052;28;20485;-71
2022/04/19 07:14:39;;;;;;;7.75;4.93;;;20.40;72.50;;;;;;5052299;28;20123;-71
2022/04/19 07:17:09;;;;;;;7.25;4.82;;;20.00;73.20;;;;;;5052694;28;20064;-71
2022/04/19 07:27:45;;;;;;;7.70;4.75;;;20.80;70.80;;;;;;5052724;28;20060;-71
2022/04/19 07:30:13;;;;;;;8.02;5.55;;;20.90;70.90;;;;;;5051436;28;20170;-71
2022/04/19 07:32:42;;;;;;;7.15;5.13;;;21.20;70.90;;;;;;5052112;28;20049;-71
2022/04/19 07:35:09;;;;;;;11.52;5.88;;;21.60;69.40;;;;;;5051489;28;20095;-71
2022/04/19 07:37:37;;;;;;;8.20;4.70;;;21.80;70.30;;;;;;5051787;28;20102;-71
2022/04/19 07:40:05;;;;;;;6.63;4.18;;;21.70;69.60;;;;;;5051305;28;20143;-71
2022/04/19 07:42:32;;;;;;;6.97;4.22;;;21.60;67.00;;;;;;5052751;28;20045;-71
2022/04/19 07:44:59;;;;;;;7.93;4.93;;;21.40;66.90;;;;;;5051194;28;20053;-71
2022/04/19 07:47:25;;;;;;;9.82;4.80;;;21.50;67.20;;;;;;5051988;28;20417;-71
2022/04/19 07:49:57;;;;;;;6.88;3.95;;;21.40;67.30;;;;;;5052597;28;20484;-72
2022/04/19 07:52:24;;;;;;;7.25;4.38;;;21.70;66.80;;;;;;5039702;28;20053;-71
2022/04/19 07:54:51;;;;;;;7.03;4.30;;;21.90;66.60;;;;;;5025371;28;20140;-71
2022/04/19 07:57:20;;;;;;;5.15;3.60;;;22.30;66.90;;;;;;5052583;28;20050;-71
2022/04/19 07:59:46;;;;;;;6.25;3.50;;;22.70;65.00;;;;;;5052749;28;20064;-72
2022/04/19 08:02:13;;;;;;;5.45;3.80;;;22.80;63.90;;;;;;5050716;28;20089;-71
2022/04/19 08:04:41;;;;;;;7.10;4.05;;;23.10;64.20;;;;;;5068118;28;20421;-71
2022/04/19 08:07:09;;;;;;;7.22;3.30;;;23.20;62.60;;;;;;5053789;28;20124;-72
2022/04/19 08:09:36;;;;;;;4.95;3.10;;;23.30;61.60;;;;;;5056613;28;20051;-71
2022/04/19 08:12:03;;;;;;;5.53;3.20;;;23.50;61.00;;;;;;5055581;28;20049;-71
2022/04/19 08:14:29;;;;;;;4.40;2.88;;;23.40;60.10;;;;;;5055396;28;20131;-73
2022/04/19 08:16:56;;;;;;;5.30;3.00;;;23.60;59.70;;;;;;5055380;28;20057;-73
2022/04/19 08:19:23;;;;;;;3.90;2.80;;;23.80;59.10;;;;;;5056353;28;20488;-73
2022/04/19 08:21:51;;;;;;;4.13;2.90;;;23.80;58.80;;;;;;5054134;28;20084;-73
2022/04/19 08:24:19;;;;;;;10.90;3.35;;;23.90;56.80;;;;;;5056352;28;20133;-71
2022/04/19 08:26:47;;;;;;;3.97;2.72;;;24.10;56.70;;;;;;5055158;28;20061;-71
2022/04/19 08:29:14;;;;;;;5.82;2.38;;;23.90;56.10;;;;;;5055799;28;20053;-71
2022/04/19 08:31:40;;;;;;;6.30;2.33;;;24.10;55.90;;;;;;5056232;28;20132;-71
2022/04/19 08:34:07;;;;;;;3.80;2.65;;;24.40;54.40;;;;;;5055116;28;20092;-72
2022/04/19 08:36:35;;;;;;;5.53;2.58;;;24.10;53.80;;;;;;5053508;28;20072;-71
2022/04/19 08:39:01;;;;;;;7.82;2.47;;;24.00;53.60;;;;;;5056372;28;20052;-71
2022/04/19 08:41:30;;;;;;;5.10;2.40;;;24.10;54.40;;;;;;5055974;28;20060;-71
2022/04/19 08:43:57;;;;;;;5.00;2.28;;;24.20;54.30;;;;;;5053988;28;20051;-71
2022/04/19 08:46:26;;;;;;;4.07;2.08;;;24.40;54.10;;;;;;5055397;28;20041;-71
2022/04/19 08:48:57;;;;;;;3.97;1.67;;;24.80;53.20;;;;;;5055723;28;20059;-71
2022/04/19 08:51:27;;;;;;;2.35;1.40;;;25.00;52.40;;;;;;5054002;28;20102;-71
2022/04/19 08:59:29;;;;;;;2.97;1.55;;;25.10;50.30;;;;;;5056028;28;20111;-71
2022/04/19 09:01:56;;;;;;;3.92;1.65;;;24.80;49.90;;;;;;5055365;28;20131;-71
2022/04/19 09:04:24;;;;;;;3.72;1.10;;;24.70;49.90;;;;;;5053579;28;20049;-71
2022/04/19 09:06:54;;;;;;;3.67;1.30;;;24.50;49.40;;;;;;5054400;28;20053;-71
2022/04/19 09:09:23;;;;;;;4.30;1.35;;;24.60;50.00;;;;;;5054493;28;20053;-71
2022/04/19 09:11:52;;;;;;;2.45;0.98;;;24.40;48.80;;;;;;5049729;28;20135;-71
2022/04/19 09:14:19;;;;;;;3.92;1.30;;;24.10;49.70;;;;;;5050285;28;20076;-71
2022/04/19 09:16:46;;;;;;;5.53;1.30;;;24.70;50.40;;;;;;5050485;28;20044;-71
2022/04/19 09:19:27;;;;;;;2.78;1.20;;;24.80;50.30;;;;;;5051427;28;20087;-72
2022/04/19 09:21:54;;;;;;;3.00;1.20;;;24.40;50.30;;;;;;5052180;28;20349;-71
2022/04/19 09:24:22;;;;;;;3.30;1.33;;;23.90;50.70;;;;;;5053408;28;20483;-71
2022/04/19 09:26:51;;;;;;;3.35;1.40;;;24.20;51.00;;;;;;5051291;28;20065;-71
2022/04/19 09:29:20;;;;;;;4.90;1.23;;;24.30;50.80;;;;;;5049725;28;20044;-71
2022/04/19 09:31:47;;;;;;;4.20;1.40;;;24.40;50.90;;;;;;5052572;28;20053;-72
2022/04/19 09:34:24;;;;;;;4.85;1.50;;;24.70;50.70;;;;;;5053699;28;20049;-71
2022/04/19 09:36:55;;;;;;;4.57;1.52;;;24.70;49.80;;;;;;5051315;28;20396;-71
2022/04/19 09:39:28;;;;;;;4.25;1.85;;;25.00;50.10;;;;;;5053044;28;20078;-71
2022/04/19 09:42:04;;;;;;;3.72;1.60;;;25.00;49.80;;;;;;5054626;28;20107;-71
2022/04/19 09:44:32;;;;;;;2.67;1.65;;;25.10;50.50;;;;;;5053246;28;20061;-72
2022/04/19 09:47:03;;;;;;;4.28;1.60;;;25.00;50.80;;;;;;5053001;28;20045;-71
2022/04/19 09:49:48;;;;;;;5.72;1.58;;;24.60;50.20;;;;;;5054611;28;20088;-71
2022/04/19 09:52:38;;;;;;;4.68;1.80;;;24.50;50.20;;;;;;5054650;28;20411;-72
2022/04/19 09:55:06;;;;;;;4.80;1.73;;;24.80;51.20;;;;;;5052526;28;20401;-71
2022/04/19 09:57:38;;;;;;;4.72;1.60;;;24.90;51.10;;;;;;5053339;28;20049;-71
2022/04/19 10:00:09;;;;;;;3.13;1.67;;;25.00;50.90;;;;;;5053529;28;20952;-72
2022/04/19 10:08:19;;;;;;;3.80;2.15;;;24.90;51.10;;;;;;5034358;28;20055;-71
2022/04/19 10:10:46;;;;;;;;;;;25.20;51.50;;;;;;5052136;28;20056;-71
2022/04/19 10:13:17;;;;;;;3.33;1.70;;;25.60;50.90;;;;;;5053136;28;19978;-71
2022/04/19 10:15:44;;;;;;;5.07;1.52;;;24.80;50.70;;;;;;5052324;28;20122;-71
2022/04/19 10:18:12;;;;;;;2.90;1.55;;;24.70;50.80;;;;;;5053924;28;20451;-71
2022/04/19 10:20:43;;;;;;;3.55;1.52;;;24.60;51.00;;;;;;5051812;28;20060;-71
2022/04/19 10:23:11;;;;;;;4.43;1.42;;;24.50;51.40;;;;;;5043720;28;20437;-71
2022/04/19 10:25:43;;;;;;;4.78;1.80;;;24.50;51.80;;;;;;5051870;28;20037;-72
2022/04/19 10:28:11;;;;;;;2.65;1.63;;;24.60;51.50;;;;;;5048841;28;20052;-72
2022/04/19 10:30:51;;;;;;;3.63;1.52;;;25.00;51.40;;;;;;5050987;28;20127;-72
2022/04/19 10:33:48;;;;;;;6.95;1.85;;;25.00;51.30;;;;;;5050273;28;20040;-71
2022/04/19 10:36:20;;;;;;;4.63;1.80;;;24.90;51.30;;;;;;5050476;28;20124;-71
2022/04/19 10:39:04;;;;;;;6.28;1.50;;;25.20;51.10;;;;;;5033482;28;20145;-72
2022/04/19 10:41:53;;;;;;;2.92;1.50;;;25.00;51.70;;;;;;5052043;28;20053;-71
2022/04/19 10:44:31;;;;;;;4.05;1.75;;;24.30;50.60;;;;;;5044761;28;20057;-72
2022/04/19 10:47:16;;;;;;;4.13;1.60;;;24.20;51.00;;;;;;5035323;28;20046;-72
2022/04/19 10:50:00;;;;;;;2.45;1.30;;;24.50;51.30;;;;;;5032284;28;20045;-71
2022/04/19 10:52:50;;;;;;;3.50;1.58;;;25.00;51.70;;;;;;5033903;28;20091;-71
2022/04/19 10:55:26;;;;;;;2.63;1.52;;;25.00;50.90;;;;;;5032583;28;20046;-71
2022/04/19 10:58:09;;;;;;;4.65;1.77;;;24.50;51.30;;;;;;5037290;28;20420;-71
2022/04/19 11:00:45;;;;;;;6.03;1.90;;;25.10;52.00;;;;;;5032636;28;20053;-71
2022/04/19 11:03:15;;;;;;;3.25;1.60;;;25.10;51.80;;;;;;5051784;28;20091;-71
2022/04/19 11:05:43;;;;;;;8.63;1.75;;;25.00;51.80;;;;;;5052023;28;20099;-71
2022/04/19 11:08:37;;;;;;;3.85;1.73;;;24.90;51.70;;;;;;5053177;28;20421;-71
2022/04/19 11:11:24;;;;;;;3.10;2.00;;;24.70;51.20;;;;;;5052838;28;20394;-71
2022/04/19 11:14:18;;;;;;;3.20;1.85;;;25.00;51.70;;;;;;5053099;28;20048;-71
2022/04/19 11:16:45;;;;;;;3.70;2.00;;;25.10;51.70;;;;;;5051940;28;20400;-71
2022/04/19 11:19:18;;;;;;;4.03;2.05;;;25.30;51.80;;;;;;5051349;28;20064;-71
2022/04/19 11:21:52;;;;;;;4.75;1.92;;;25.10;51.50;;;;;;5068468;28;20386;-71
2022/04/19 11:24:56;;;;;;;3.53;2.20;;;24.70;51.60;;;;;;5052368;28;20103;-71
2022/04/19 11:27:23;;;;;;;3.50;2.22;;;24.80;52.60;;;;;;5051731;28;20053;-71
2022/04/19 11:29:50;;;;;;;3.15;2.00;;;24.70;52.50;;;;;;5053254;28;20057;-72
2022/04/19 11:32:26;;;;;;;4.72;2.00;;;24.90;52.00;;;;;;5052203;28;20053;-71
2022/04/19 11:35:04;;;;;;;2.65;1.70;;;24.80;52.50;;;;;;5051460;28;20049;-71
2022/04/19 11:37:31;;;;;;;2.50;1.27;;;25.20;51.80;;;;;;5052825;28;20086;-71
2022/04/19 11:48:27;;;;;;;3.85;1.60;;;25.90;51.70;;;;;;5068278;28;20056;-71
2022/04/19 11:51:07;;;;;;;3.00;1.52;;;25.90;51.80;;;;;;5052912;28;20049;-71
2022/04/19 11:53:34;;;;;;;4.50;1.90;;;25.50;50.50;;;;;;5050998;28;20114;-71
2022/04/19 11:56:01;;;;;;;3.08;1.60;;;25.40;51.00;;;;;;5052643;28;20049;-71
2022/04/19 11:58:29;;;;;;;2.17;1.60;;;25.30;51.20;;;;;;5050944;28;20049;-71
2022/04/19 12:01:01;;;;;;;4.10;2.15;;;25.60;51.00;;;;;;5051032;28;20144;-71
2022/04/19 12:03:29;;;;;;;5.50;1.88;;;25.30;50.10;;;;;;5052502;28;20045;-71
2022/04/19 12:06:05;;;;;;;5.10;2.13;;;25.00;50.70;;;;;;5051695;28;20057;-71
2022/04/19 12:08:33;;;;;;;4.15;1.80;;;25.30;51.00;;;;;;5050752;28;20048;-71
2022/04/19 12:11:03;;;;;;;3.55;2.30;;;25.30;50.60;;;;;;5051010;28;20049;-71
2022/04/19 12:13:30;;;;;;;;;;;25.40;51.00;;;;;;5052472;28;20052;-71
2022/04/19 12:15:56;;;;;;;4.47;2.10;;;25.00;51.50;;;;;;5051308;28;19971;-71
2022/04/19 12:18:34;;;;;;;6.80;2.50;;;25.20;51.60;;;;;;5050902;28;20049;-71
2022/04/19 12:21:03;;;;;;;3.10;1.90;;;25.10;51.40;;;;;;5051872;28;20114;-71
2022/04/19 12:23:30;;;;;;;7.40;1.80;;;25.30;50.80;;;;;;5052467;28;20056;-71
2022/04/19 12:26:05;;;;;;;3.47;1.58;;;25.10;50.90;;;;;;5052277;28;20103;-71
2022/04/19 12:28:42;;;;;;;4.10;1.95;;;25.10;51.70;;;;;;5051805;28;20103;-72
2022/04/19 12:31:08;;;;;;;6.38;2.03;;;25.30;51.90;;;;;;5051325;28;20480;-72
2022/04/19 12:33:37;;;;;;;2.92;1.70;;;25.00;50.90;;;;;;5051162;28;20057;-71
2022/04/19 12:36:12;;;;;;;3.05;1.60;;;25.20;51.00;;;;;;5050556;28;20045;-71
2022/04/19 12:38:39;;;;;;;2.85;2.10;;;25.50;51.50;;;;;;5051120;28;20132;-71
2022/04/19 12:41:15;;;;;;;3.60;2.00;;;25.50;52.00;;;;;;5052046;28;20448;-71
2022/04/19 12:43:43;;;;;;;4.68;2.65;;;25.80;52.60;;;;;;5049944;28;20405;-71
2022/04/19 12:46:11;;;;;;;3.28;1.83;;;25.40;52.80;;;;;;5045469;28;20511;-72
2022/04/19 12:48:38;;;;;;;3.15;2.15;;;25.40;53.20;;;;;;5049112;28;20128;-72
2022/04/19 12:51:06;;;;;;;4.10;1.83;;;25.10;52.30;;;;;;5049059;28;20045;-71
2022/04/19 12:53:35;;;;;;;3.70;1.70;;;25.40;52.00;;;;;;5051441;28;20107;-71
2022/04/19 12:56:10;;;;;;;4.80;1.67;;;25.80;52.00;;;;;;5048297;28;20575;-72
2022/04/19 12:58:43;;;;;;;2.65;1.77;;;25.80;51.20;;;;;;5052089;28;20056;-72
2022/04/19 13:01:10;;;;;;;3.28;1.83;;;25.50;51.20;;;;;;5051686;28;20049;-71
2022/04/19 13:03:37;;;;;;;4.25;2.30;;;26.00;51.40;;;;;;5052188;28;20055;-71
2022/04/19 13:14:19;;;;;;;2.25;1.67;;;25.70;52.00;;;;;;5051252;28;20087;-71
2022/04/19 13:16:46;;;;;;;4.53;1.88;;;25.40;51.00;;;;;;5052974;28;20110;-71
2022/04/19 13:19:13;;;;;;;4.38;2.03;;;25.60;51.60;;;;;;5053191;28;20041;-72
2022/04/19 13:21:41;;;;;;;3.80;2.05;;;25.70;51.70;;;;;;5053036;28;20203;-72
2022/04/19 13:24:09;;;;;;;2.97;1.90;;;25.70;51.60;;;;;;5052702;28;20126;-72
2022/04/19 13:26:36;;;;;;;3.20;2.17;;;25.70;51.20;;;;;;5051998;28;20057;-72
2022/04/19 13:29:03;;;;;;;3.30;1.90;;;25.60;51.10;;;;;;5052740;28;20055;-71
2022/04/19 13:31:30;;;;;;;4.63;1.83;;;25.10;50.90;;;;;;5051529;28;20134;-71
2022/04/19 13:33:57;;;;;;;5.07;2.90;;;25.40;50.90;;;;;;5053747;28;20128;-71
2022/04/19 13:36:24;;;;;;;5.88;2.55;;;24.90;50.80;;;;;;5052131;28;20107;-71
2022/04/19 13:38:53;;;;;;;3.10;2.08;;;25.20;51.60;;;;;;5053987;28;20052;-71
2022/04/19 13:41:19;;;;;;;4.25;2.28;;;25.70;51.20;;;;;;5053795;28;20049;-71
2022/04/19 13:43:47;;;;;;;3.80;2.40;;;25.80;50.90;;;;;;5053592;28;20053;-71
2022/04/19 13:46:14;;;;;;;3.55;2.15;;;26.50;50.60;;;;;;5054149;28;20444;-71
2022/04/19 13:48:41;;;;;;;6.35;3.33;;;26.70;50.50;;;;;;5052929;28;20566;-71